sensor_id;sensor_type;location;lat;lon;timestamp;pressure;altitude;pressure_sealevel;temperature;humidity
74627;BME280;63132;52.268;5.192;2022-10-16T00:02:21;100772.75;;;12.20;85.20
74627;BME280;63132;52.268;5.192;2022-10-16T00:04:47;100772.88;;;12.44;82.47
74627;BME280;63132;52.268;5.192;2022-10-16T00:07:12;100764.56;;;12.40;83.53
74627;BME280;63132;52.268;5.192;2022-10-16T00:09:38;100776.56;;;12.34;83.57
74627;BME280;63132;52.268;5.192;2022-10-16T00:12:03;100777.84;;;12.29;82.92
74627;BME280;63132;52.268;5.192;2022-10-16T00:14:29;100773.63;;;12.17;83.71
74627;BME280;63132;52.268;5.192;2022-10-16T00:16:55;100776.53;;;12.37;82.96
74627;BME280;63132;52.268;5.192;2022-10-16T00:19:20;100772.66;;;12.31;83.33
74627;BME280;63132;52.268;5.192;2022-10-16T00:21:46;100762.56;;;12.44;82.40
74627;BME280;63132;52.268;5.192;2022-10-16T00:24:11;100762.25;;;12.35;82.40
74627;BME280;63132;52.268;5.192;2022-10-16T00:26:38;100763.84;;;12.63;80.77
74627;BME280;63132;52.268;5.192;2022-10-16T00:29:04;100765.75;;;12.70;80.96
74627;BME280;63132;52.268;5.192;2022-10-16T00:31:30;100757.34;;;12.73;80.46
74627;BME280;63132;52.268;5.192;2022-10-16T00:33:56;100761.03;;;12.67;81.07
74627;BME280;63132;52.268;5.192;2022-10-16T00:36:24;100750.41;;;12.85;80.21
74627;BME280;63132;52.268;5.192;2022-10-16T00:38:51;100758.09;;;13.01;79.34
74627;BME280;63132;52.268;5.192;2022-10-16T00:41:19;100768.66;;;12.86;79.39
74627;BME280;63132;52.268;5.192;2022-10-16T00:43:50;100757.00;;;12.95;79.11
74627;BME280;63132;52.268;5.192;2022-10-16T00:46:35;100747.47;;;12.96;78.90
74627;BME280;63132;52.268;5.192;2022-10-16T00:49:15;100750.84;;;12.84;79.79
74627;BME280;63132;52.268;5.192;2022-10-16T00:51:45;100764.31;;;12.85;79.25
74627;BME280;63132;52.268;5.192;2022-10-16T00:54:15;100758.97;;;12.98;79.44
74627;BME280;63132;52.268;5.192;2022-10-16T00:56:43;100754.91;;;13.02;78.58
74627;BME280;63132;52.268;5.192;2022-10-16T00:59:20;100762.56;;;12.95;79.40
74627;BME280;63132;52.268;5.192;2022-10-16T01:01:47;100761.56;;;13.09;78.70
74627;BME280;63132;52.268;5.192;2022-10-16T01:04:13;100764.75;;;13.07;78.37
74627;BME280;63132;52.268;5.192;2022-10-16T01:06:56;100761.19;;;13.07;78.74
74627;BME280;63132;52.268;5.192;2022-10-16T01:12:38;100754.34;;;12.88;80.50
74627;BME280;63132;52.268;5.192;2022-10-16T01:18:11;100752.84;;;13.07;79.25
74627;BME280;63132;52.268;5.192;2022-10-16T01:20:54;100748.38;;;13.13;78.58
74627;BME280;63132;52.268;5.192;2022-10-16T01:23:51;100743.25;;;13.11;78.41
74627;BME280;63132;52.268;5.192;2022-10-16T01:29:56;100733.81;;;13.05;79.98
74627;BME280;63132;52.268;5.192;2022-10-16T01:32:39;100736.72;;;12.98;80.06
74627;BME280;63132;52.268;5.192;2022-10-16T01:40:26;100749.88;;;13.17;80.23
74627;BME280;63132;52.268;5.192;2022-10-16T01:42:56;100756.91;;;13.02;80.36
74627;BME280;63132;52.268;5.192;2022-10-16T01:45:24;100758.22;;;13.17;80.53
74627;BME280;63132;52.268;5.192;2022-10-16T01:47:51;100750.63;;;12.98;81.10
74627;BME280;63132;52.268;5.192;2022-10-16T01:50:19;100749.66;;;13.08;81.22
74627;BME280;63132;52.268;5.192;2022-10-16T01:52:48;100749.59;;;13.12;81.10
74627;BME280;63132;52.268;5.192;2022-10-16T01:55:20;100740.63;;;13.00;81.94
74627;BME280;63132;52.268;5.192;2022-10-16T01:57:48;100759.19;;;13.07;81.57
74627;BME280;63132;52.268;5.192;2022-10-16T02:00:16;100767.31;;;12.98;82.56
74627;BME280;63132;52.268;5.192;2022-10-16T02:02:45;100759.00;;;12.94;83.00
74627;BME280;63132;52.268;5.192;2022-10-16T02:05:20;100763.66;;;13.01;83.10
74627;BME280;63132;52.268;5.192;2022-10-16T02:07:48;100763.47;;;12.88;83.38
74627;BME280;63132;52.268;5.192;2022-10-16T02:10:14;100766.50;;;12.74;84.20
74627;BME280;63132;52.268;5.192;2022-10-16T02:12:44;100768.00;;;12.79;83.70
74627;BME280;63132;52.268;5.192;2022-10-16T02:15:11;100763.53;;;12.85;83.94
74627;BME280;63132;52.268;5.192;2022-10-16T02:17:36;100774.88;;;12.70;84.18
74627;BME280;63132;52.268;5.192;2022-10-16T02:20:03;100784.97;;;12.57;85.21
74627;BME280;63132;52.268;5.192;2022-10-16T02:22:39;100789.06;;;12.18;86.66
74627;BME280;63132;52.268;5.192;2022-10-16T02:30:23;100790.81;;;12.05;87.76
74627;BME280;63132;52.268;5.192;2022-10-16T02:32:52;100790.81;;;12.05;87.25
74627;BME280;63132;52.268;5.192;2022-10-16T02:35:20;100792.69;;;12.15;87.19
74627;BME280;63132;52.268;5.192;2022-10-16T02:37:47;100798.75;;;12.07;87.54
74627;BME280;63132;52.268;5.192;2022-10-16T02:40:14;100805.69;;;12.22;86.53
74627;BME280;63132;52.268;5.192;2022-10-16T02:42:41;100802.22;;;12.14;86.54
74627;BME280;63132;52.268;5.192;2022-10-16T02:45:08;100798.50;;;12.25;86.29
74627;BME280;63132;52.268;5.192;2022-10-16T02:47:34;100805.34;;;12.16;87.00
74627;BME280;63132;52.268;5.192;2022-10-16T02:49:59;100795.13;;;12.10;87.58
74627;BME280;63132;52.268;5.192;2022-10-16T02:52:25;100807.38;;;12.12;87.38
74627;BME280;63132;52.268;5.192;2022-10-16T02:54:50;100807.63;;;12.25;86.64
74627;BME280;63132;52.268;5.192;2022-10-16T02:57:17;100809.00;;;12.40;86.33
74627;BME280;63132;52.268;5.192;2022-10-16T02:59:43;100810.16;;;12.43;86.41
74627;BME280;63132;52.268;5.192;2022-10-16T03:02:08;100810.03;;;12.23;87.23
74627;BME280;63132;52.268;5.192;2022-10-16T03:04:34;100804.78;;;12.29;86.85
74627;BME280;63132;52.268;5.192;2022-10-16T03:06:59;100818.28;;;12.30;86.93
74627;BME280;63132;52.268;5.192;2022-10-16T03:09:25;100807.97;;;12.27;86.78
74627;BME280;63132;52.268;5.192;2022-10-16T03:11:50;100806.25;;;12.06;87.93
74627;BME280;63132;52.268;5.192;2022-10-16T03:14:17;100799.03;;;12.12;87.87
74627;BME280;63132;52.268;5.192;2022-10-16T03:16:42;100790.19;;;11.90;88.96
74627;BME280;63132;52.268;5.192;2022-10-16T03:19:08;100798.91;;;11.93;87.91
74627;BME280;63132;52.268;5.192;2022-10-16T03:21:33;100807.16;;;12.00;88.44
74627;BME280;63132;52.268;5.192;2022-10-16T03:23:59;100798.75;;;12.03;87.99
74627;BME280;63132;52.268;5.192;2022-10-16T03:26:24;100800.50;;;11.90;88.50
74627;BME280;63132;52.268;5.192;2022-10-16T03:28:49;100803.19;;;11.97;88.73
74627;BME280;63132;52.268;5.192;2022-10-16T03:31:15;100807.38;;;12.12;87.80
74627;BME280;63132;52.268;5.192;2022-10-16T03:33:40;100816.47;;;12.16;87.81
74627;BME280;63132;52.268;5.192;2022-10-16T03:36:06;100818.03;;;12.17;87.54
74627;BME280;63132;52.268;5.192;2022-10-16T03:38:32;100808.38;;;11.95;88.71
74627;BME280;63132;52.268;5.192;2022-10-16T03:40:57;100826.00;;;12.15;88.12
74627;BME280;63132;52.268;5.192;2022-10-16T03:43:23;100821.94;;;12.20;88.16
74627;BME280;63132;52.268;5.192;2022-10-16T03:45:50;100824.97;;;11.99;88.48
74627;BME280;63132;52.268;5.192;2022-10-16T03:48:15;100820.88;;;12.10;88.31
74627;BME280;63132;52.268;5.192;2022-10-16T03:50:41;100823.53;;;12.21;87.94
74627;BME280;63132;52.268;5.192;2022-10-16T03:53:06;100823.13;;;12.23;87.08
74627;BME280;63132;52.268;5.192;2022-10-16T03:55:31;100825.72;;;12.03;88.36
74627;BME280;63132;52.268;5.192;2022-10-16T03:57:57;100814.22;;;12.04;88.56
74627;BME280;63132;52.268;5.192;2022-10-16T04:00:22;100827.28;;;12.07;88.68
74627;BME280;63132;52.268;5.192;2022-10-16T04:02:47;100828.94;;;11.98;88.45
74627;BME280;63132;52.268;5.192;2022-10-16T04:05:13;100833.09;;;11.82;89.28
74627;BME280;63132;52.268;5.192;2022-10-16T04:07:38;100835.72;;;11.97;89.12
74627;BME280;63132;52.268;5.192;2022-10-16T04:10:04;100842.94;;;11.87;89.57
74627;BME280;63132;52.268;5.192;2022-10-16T04:12:29;100846.09;;;11.89;89.58
74627;BME280;63132;52.268;5.192;2022-10-16T04:14:55;100843.31;;;11.89;89.57
74627;BME280;63132;52.268;5.192;2022-10-16T04:17:20;100843.25;;;11.96;89.01
74627;BME280;63132;52.268;5.192;2022-10-16T04:19:46;100854.31;;;12.00;89.52
74627;BME280;63132;52.268;5.192;2022-10-16T04:22:11;100851.88;;;12.05;88.91
74627;BME280;63132;52.268;5.192;2022-10-16T04:24:37;100855.41;;;12.09;88.54
74627;BME280;63132;52.268;5.192;2022-10-16T04:27:02;100863.72;;;12.09;89.13
74627;BME280;63132;52.268;5.192;2022-10-16T04:29:28;100872.06;;;12.09;89.31
74627;BME280;63132;52.268;5.192;2022-10-16T04:31:53;100868.03;;;12.14;88.88
74627;BME280;63132;52.268;5.192;2022-10-16T04:34:19;100872.91;;;12.03;89.04
74627;BME280;63132;52.268;5.192;2022-10-16T04:36:47;100882.66;;;12.18;88.21
74627;BME280;63132;52.268;5.192;2022-10-16T04:39:14;100877.69;;;12.02;88.74
74627;BME280;63132;52.268;5.192;2022-10-16T04:41:40;100882.53;;;11.91;89.46
74627;BME280;63132;52.268;5.192;2022-10-16T04:44:05;100887.16;;;12.05;89.53
74627;BME280;63132;52.268;5.192;2022-10-16T04:46:30;100890.66;;;12.12;89.07
74627;BME280;63132;52.268;5.192;2022-10-16T04:48:56;100896.19;;;12.12;89.03
74627;BME280;63132;52.268;5.192;2022-10-16T04:51:21;100895.31;;;12.23;88.84
74627;BME280;63132;52.268;5.192;2022-10-16T04:53:47;100887.88;;;12.12;89.25
74627;BME280;63132;52.268;5.192;2022-10-16T04:56:12;100890.63;;;12.16;88.66
74627;BME280;63132;52.268;5.192;2022-10-16T04:58:38;100888.09;;;12.29;88.46
74627;BME280;63132;52.268;5.192;2022-10-16T05:01:03;100904.31;;;12.34;88.29
74627;BME280;63132;52.268;5.192;2022-10-16T05:03:29;100913.41;;;12.38;88.15
74627;BME280;63132;52.268;5.192;2022-10-16T05:05:54;100924.75;;;12.13;88.92
74627;BME280;63132;52.268;5.192;2022-10-16T05:08:20;100926.25;;;12.21;88.53
74627;BME280;63132;52.268;5.192;2022-10-16T05:10:45;100922.31;;;12.18;88.79
74627;BME280;63132;52.268;5.192;2022-10-16T05:13:11;100930.28;;;12.16;89.37
74627;BME280;63132;52.268;5.192;2022-10-16T05:15:37;100934.94;;;12.27;88.77
74627;BME280;63132;52.268;5.192;2022-10-16T05:18:02;100935.56;;;12.41;88.21
74627;BME280;63132;52.268;5.192;2022-10-16T05:20:28;100941.66;;;12.29;88.67
74627;BME280;63132;52.268;5.192;2022-10-16T05:22:54;100944.53;;;12.18;89.20
74627;BME280;63132;52.268;5.192;2022-10-16T05:25:19;100947.84;;;12.03;89.56
74627;BME280;63132;52.268;5.192;2022-10-16T05:27:48;100955.06;;;12.34;88.90
74627;BME280;63132;52.268;5.192;2022-10-16T05:30:14;100955.94;;;12.28;88.94
74627;BME280;63132;52.268;5.192;2022-10-16T05:32:40;100960.28;;;12.29;88.98
74627;BME280;63132;52.268;5.192;2022-10-16T05:35:06;100956.78;;;12.25;88.52
74627;BME280;63132;52.268;5.192;2022-10-16T05:37:33;100959.41;;;12.39;88.93
74627;BME280;63132;52.268;5.192;2022-10-16T05:39:58;100970.94;;;12.37;88.65
74627;BME280;63132;52.268;5.192;2022-10-16T05:42:24;100973.28;;;12.39;88.48
74627;BME280;63132;52.268;5.192;2022-10-16T05:44:49;100969.38;;;12.33;88.52
74627;BME280;63132;52.268;5.192;2022-10-16T05:47:14;100977.63;;;12.40;88.80
74627;BME280;63132;52.268;5.192;2022-10-16T05:49:40;100968.47;;;12.43;89.08
74627;BME280;63132;52.268;5.192;2022-10-16T05:52:06;100978.47;;;12.37;89.36
74627;BME280;63132;52.268;5.192;2022-10-16T05:54:31;100984.63;;;12.14;91.01
74627;BME280;63132;52.268;5.192;2022-10-16T05:56:56;100994.78;;;12.31;90.11
74627;BME280;63132;52.268;5.192;2022-10-16T05:59:22;100996.06;;;12.23;90.17
74627;BME280;63132;52.268;5.192;2022-10-16T06:01:47;100994.06;;;12.24;90.58
74627;BME280;63132;52.268;5.192;2022-10-16T06:04:13;100998.44;;;12.21;90.80
74627;BME280;63132;52.268;5.192;2022-10-16T06:06:38;101013.59;;;12.13;91.74
74627;BME280;63132;52.268;5.192;2022-10-16T06:09:04;101019.19;;;12.09;91.94
74627;BME280;63132;52.268;5.192;2022-10-16T06:11:31;101021.09;;;12.16;92.23
74627;BME280;63132;52.268;5.192;2022-10-16T06:13:59;101020.75;;;12.10;93.13
74627;BME280;63132;52.268;5.192;2022-10-16T06:16:27;101019.97;;;12.06;93.84
74627;BME280;63132;52.268;5.192;2022-10-16T06:18:54;101012.06;;;12.05;93.75
74627;BME280;63132;52.268;5.192;2022-10-16T06:21:23;101020.19;;;11.85;94.92
74627;BME280;63132;52.268;5.192;2022-10-16T06:23:53;101023.75;;;11.82;95.51
74627;BME280;63132;52.268;5.192;2022-10-16T06:26:20;101006.19;;;11.96;94.85
74627;BME280;63132;52.268;5.192;2022-10-16T06:28:46;100995.22;;;11.81;95.12
74627;BME280;63132;52.268;5.192;2022-10-16T06:31:13;100998.78;;;11.82;94.69
74627;BME280;63132;52.268;5.192;2022-10-16T06:33:39;101016.03;;;12.04;94.10
74627;BME280;63132;52.268;5.192;2022-10-16T06:36:11;101021.72;;;11.89;94.43
74627;BME280;63132;52.268;5.192;2022-10-16T06:38:37;101015.03;;;11.76;95.03
74627;BME280;63132;52.268;5.192;2022-10-16T06:41:02;101023.34;;;11.80;95.20
74627;BME280;63132;52.268;5.192;2022-10-16T06:43:29;101018.16;;;11.89;95.09
74627;BME280;63132;52.268;5.192;2022-10-16T06:45:58;101033.28;;;11.77;94.65
74627;BME280;63132;52.268;5.192;2022-10-16T06:48:24;101038.50;;;11.64;95.36
74627;BME280;63132;52.268;5.192;2022-10-16T06:51:08;101029.69;;;11.77;94.83
74627;BME280;63132;52.268;5.192;2022-10-16T06:53:36;101029.41;;;11.64;95.44
74627;BME280;63132;52.268;5.192;2022-10-16T06:56:12;101033.72;;;11.69;95.37
74627;BME280;63132;52.268;5.192;2022-10-16T06:58:38;101040.72;;;11.91;95.36
74627;BME280;63132;52.268;5.192;2022-10-16T07:01:04;101046.81;;;12.24;93.86
74627;BME280;63132;52.268;5.192;2022-10-16T07:03:30;101047.72;;;12.10;94.37
74627;BME280;63132;52.268;5.192;2022-10-16T07:05:56;101066.31;;;12.16;92.53
74627;BME280;63132;52.268;5.192;2022-10-16T07:08:21;101054.75;;;12.25;92.79
74627;BME280;63132;52.268;5.192;2022-10-16T07:10:47;101063.09;;;12.22;93.35
74627;BME280;63132;52.268;5.192;2022-10-16T07:13:12;101065.84;;;12.22;93.25
74627;BME280;63132;52.268;5.192;2022-10-16T07:15:41;101074.91;;;12.33;92.45
74627;BME280;63132;52.268;5.192;2022-10-16T07:18:08;101087.16;;;12.39;92.62
74627;BME280;63132;52.268;5.192;2022-10-16T07:20:33;101085.66;;;12.27;92.30
74627;BME280;63132;52.268;5.192;2022-10-16T07:22:59;101086.72;;;12.44;91.28
74627;BME280;63132;52.268;5.192;2022-10-16T07:25:24;101105.34;;;12.47;91.56
74627;BME280;63132;52.268;5.192;2022-10-16T07:27:50;101108.53;;;12.42;91.03
74627;BME280;63132;52.268;5.192;2022-10-16T07:30:15;101110.28;;;12.22;91.69
74627;BME280;63132;52.268;5.192;2022-10-16T07:32:41;101106.25;;;12.33;90.99
74627;BME280;63132;52.268;5.192;2022-10-16T07:35:07;101110.38;;;12.14;91.56
74627;BME280;63132;52.268;5.192;2022-10-16T07:37:32;101127.03;;;12.11;92.32
74627;BME280;63132;52.268;5.192;2022-10-16T07:39:58;101133.41;;;12.04;91.86
74627;BME280;63132;52.268;5.192;2022-10-16T07:42:24;101141.41;;;11.91;93.23
74627;BME280;63132;52.268;5.192;2022-10-16T07:44:50;101142.56;;;12.01;92.79
74627;BME280;63132;52.268;5.192;2022-10-16T07:47:15;101150.13;;;11.97;93.01
74627;BME280;63132;52.268;5.192;2022-10-16T07:49:41;101158.41;;;12.04;92.95
74627;BME280;63132;52.268;5.192;2022-10-16T07:52:06;101159.97;;;12.09;92.97
74627;BME280;63132;52.268;5.192;2022-10-16T07:54:32;101162.72;;;12.12;92.39
74627;BME280;63132;52.268;5.192;2022-10-16T07:56:58;101165.47;;;12.12;92.83
74627;BME280;63132;52.268;5.192;2022-10-16T07:59:23;101168.22;;;12.19;92.75
74627;BME280;63132;52.268;5.192;2022-10-16T08:01:49;101174.59;;;12.16;92.98
74627;BME280;63132;52.268;5.192;2022-10-16T08:04:14;101171.44;;;12.11;92.79
74627;BME280;63132;52.268;5.192;2022-10-16T08:06:40;101175.47;;;12.03;93.36
74627;BME280;63132;52.268;5.192;2022-10-16T08:09:07;101179.41;;;12.09;93.23
74627;BME280;63132;52.268;5.192;2022-10-16T08:11:32;101185.66;;;12.20;93.19
74627;BME280;63132;52.268;5.192;2022-10-16T08:13:58;101184.72;;;12.41;92.04
74627;BME280;63132;52.268;5.192;2022-10-16T08:16:23;101191.91;;;12.38;92.48
74627;BME280;63132;52.268;5.192;2022-10-16T08:18:49;101189.88;;;12.42;91.98
74627;BME280;63132;52.268;5.192;2022-10-16T08:21:18;101197.88;;;12.33;92.32
74627;BME280;63132;52.268;5.192;2022-10-16T08:23:44;101201.81;;;12.36;92.98
74627;BME280;63132;52.268;5.192;2022-10-16T08:26:10;101199.72;;;12.54;92.45
74627;BME280;63132;52.268;5.192;2022-10-16T08:28:36;101196.53;;;12.59;92.10
74627;BME280;63132;52.268;5.192;2022-10-16T08:33:33;101212.03;;;12.53;92.96
74627;BME280;63132;52.268;5.192;2022-10-16T08:36:00;101208.69;;;12.72;92.02
74627;BME280;63132;52.268;5.192;2022-10-16T08:38:25;101205.66;;;12.60;92.40
74627;BME280;63132;52.268;5.192;2022-10-16T08:40:51;101225.00;;;12.70;91.88
74627;BME280;63132;52.268;5.192;2022-10-16T08:51:08;101227.91;;;13.05;90.56
74627;BME280;63132;52.268;5.192;2022-10-16T08:53:42;101239.94;;;12.91;90.68
74627;BME280;63132;52.268;5.192;2022-10-16T08:56:09;101243.09;;;12.93;91.22
74627;BME280;63132;52.268;5.192;2022-10-16T08:58:35;101245.75;;;13.07;90.74
74627;BME280;63132;52.268;5.192;2022-10-16T09:01:03;101253.59;;;13.16;89.81
74627;BME280;63132;52.268;5.192;2022-10-16T09:23:13;101284.63;;;13.59;88.10
74627;BME280;63132;52.268;5.192;2022-10-16T09:25:44;101286.78;;;13.41;88.07
74627;BME280;63132;52.268;5.192;2022-10-16T09:28:10;101288.25;;;13.56;87.46
74627;BME280;63132;52.268;5.192;2022-10-16T09:30:35;101291.16;;;13.79;87.07
74627;BME280;63132;52.268;5.192;2022-10-16T09:33:02;101290.75;;;13.81;86.84
74627;BME280;63132;52.268;5.192;2022-10-16T09:38:07;101299.44;;;13.87;87.32
74627;BME280;63132;52.268;5.192;2022-10-16T09:40:38;101304.94;;;13.94;86.81
74627;BME280;63132;52.268;5.192;2022-10-16T09:48:33;101314.66;;;14.47;83.60
74627;BME280;63132;52.268;5.192;2022-10-16T09:51:03;101317.91;;;14.38;83.60
74627;BME280;63132;52.268;5.192;2022-10-16T09:53:39;101316.00;;;14.31;84.17
74627;BME280;63132;52.268;5.192;2022-10-16T09:56:05;101319.75;;;14.18;84.91
74627;BME280;63132;52.268;5.192;2022-10-16T09:58:31;101308.75;;;14.37;83.54
74627;BME280;63132;52.268;5.192;2022-10-16T10:00:59;101309.69;;;14.27;84.44
74627;BME280;63132;52.268;5.192;2022-10-16T10:03:34;101307.41;;;14.19;84.07
74627;BME280;63132;52.268;5.192;2022-10-16T10:06:06;101327.00;;;14.11;84.54
74627;BME280;63132;52.268;5.192;2022-10-16T10:08:32;101319.59;;;14.32;82.96
74627;BME280;63132;52.268;5.192;2022-10-16T10:10:58;101311.06;;;14.12;84.58
74627;BME280;63132;52.268;5.192;2022-10-16T10:13:24;101321.63;;;14.28;83.02
74627;BME280;63132;52.268;5.192;2022-10-16T10:15:52;101324.38;;;14.31;83.15
74627;BME280;63132;52.268;5.192;2022-10-16T10:18:20;101329.53;;;14.63;82.89
74627;BME280;63132;52.268;5.192;2022-10-16T10:20:57;101333.38;;;14.73;81.09
74627;BME280;63132;52.268;5.192;2022-10-16T10:23:25;101339.34;;;14.75;81.37
74627;BME280;63132;52.268;5.192;2022-10-16T10:26:27;101337.91;;;14.90;79.66
74627;BME280;63132;52.268;5.192;2022-10-16T10:29:15;101341.78;;;14.96;80.07
74627;BME280;63132;52.268;5.192;2022-10-16T10:35:07;101357.75;;;14.96;78.84
74627;BME280;63132;52.268;5.192;2022-10-16T10:42:55;101362.72;;;14.81;80.19
74627;BME280;63132;52.268;5.192;2022-10-16T10:45:27;101362.41;;;15.03;78.41
74627;BME280;63132;52.268;5.192;2022-10-16T10:50:49;101369.41;;;14.87;77.78
74627;BME280;63132;52.268;5.192;2022-10-16T10:56:22;101381.38;;;15.15;78.31
74627;BME280;63132;52.268;5.192;2022-10-16T10:59:05;101378.84;;;15.24;78.00
74627;BME280;63132;52.268;5.192;2022-10-16T11:02:10;101382.94;;;15.16;78.51
74627;BME280;63132;52.268;5.192;2022-10-16T11:07:26;101395.78;;;15.87;75.26
74627;BME280;63132;52.268;5.192;2022-10-16T11:09:58;101390.06;;;16.14;72.10
74627;BME280;63132;52.268;5.192;2022-10-16T11:12:28;101385.41;;;16.47;71.79
74627;BME280;63132;52.268;5.192;2022-10-16T11:15:05;101389.22;;;16.77;70.17
74627;BME280;63132;52.268;5.192;2022-10-16T11:17:48;101394.84;;;16.53;70.34
74627;BME280;63132;52.268;5.192;2022-10-16T11:20:23;101397.38;;;16.48;71.56
74627;BME280;63132;52.268;5.192;2022-10-16T11:25:30;101400.69;;;16.63;71.20
74627;BME280;63132;52.268;5.192;2022-10-16T11:28:26;101397.78;;;16.66;68.77
74627;BME280;63132;52.268;5.192;2022-10-16T11:31:22;101392.97;;;16.67;69.06
74627;BME280;63132;52.268;5.192;2022-10-16T11:34:13;101412.84;;;16.52;68.29
74627;BME280;63132;52.268;5.192;2022-10-16T11:39:24;101410.84;;;16.13;70.21
74627;BME280;63132;52.268;5.192;2022-10-16T11:49:59;101407.06;;;16.43;66.46
74627;BME280;63132;52.268;5.192;2022-10-16T11:52:36;101416.38;;;16.56;64.71
74627;BME280;63132;52.268;5.192;2022-10-16T11:57:34;101416.59;;;16.46;62.92
74627;BME280;63132;52.268;5.192;2022-10-16T12:00:10;101419.25;;;16.33;64.75
74627;BME280;63132;52.268;5.192;2022-10-16T12:05:33;101417.28;;;16.30;63.80
74627;BME280;63132;52.268;5.192;2022-10-16T12:08:14;101426.13;;;16.28;62.78
74627;BME280;63132;52.268;5.192;2022-10-16T12:10:43;101428.81;;;16.12;64.61
74627;BME280;63132;52.268;5.192;2022-10-16T12:13:38;101423.59;;;16.14;62.31
74627;BME280;63132;52.268;5.192;2022-10-16T12:18:41;101424.16;;;16.05;63.41
74627;BME280;63132;52.268;5.192;2022-10-16T12:21:08;101429.38;;;16.03;64.13
74627;BME280;63132;52.268;5.192;2022-10-16T12:23:46;101442.13;;;16.04;65.04
74627;BME280;63132;52.268;5.192;2022-10-16T12:26:12;101438.91;;;16.06;64.52
74627;BME280;63132;52.268;5.192;2022-10-16T12:28:38;101439.66;;;16.10;63.75
74627;BME280;63132;52.268;5.192;2022-10-16T12:31:07;101442.19;;;16.01;66.15
74627;BME280;63132;52.268;5.192;2022-10-16T12:33:36;101441.34;;;16.04;63.17
74627;BME280;63132;52.268;5.192;2022-10-16T12:36:12;101442.03;;;15.88;63.29
74627;BME280;63132;52.268;5.192;2022-10-16T12:38:48;101452.88;;;15.83;64.73
74627;BME280;63132;52.268;5.192;2022-10-16T12:41:25;101445.66;;;15.85;64.74
74627;BME280;63132;52.268;5.192;2022-10-16T12:43:52;101447.09;;;15.70;63.85
74627;BME280;63132;52.268;5.192;2022-10-16T12:48:44;101440.19;;;15.78;63.75
74627;BME280;63132;52.268;5.192;2022-10-16T12:54:04;101452.47;;;15.84;64.04
74627;BME280;63132;52.268;5.192;2022-10-16T13:02:46;101451.59;;;15.64;65.26
74627;BME280;63132;52.268;5.192;2022-10-16T13:08:35;101463.88;;;15.70;64.41
74627;BME280;63132;52.268;5.192;2022-10-16T13:13:51;101461.38;;;15.75;63.58
74627;BME280;63132;52.268;5.192;2022-10-16T13:16:40;101462.66;;;15.71;64.32
74627;BME280;63132;52.268;5.192;2022-10-16T13:19:38;101464.59;;;15.74;66.06
74627;BME280;63132;52.268;5.192;2022-10-16T13:22:23;101458.16;;;16.00;63.89
74627;BME280;63132;52.268;5.192;2022-10-16T13:30:23;101469.94;;;16.12;63.14
74627;BME280;63132;52.268;5.192;2022-10-16T13:32:58;101479.69;;;16.03;64.56
74627;BME280;63132;52.268;5.192;2022-10-16T13:35:27;101485.59;;;16.29;63.15
74627;BME280;63132;52.268;5.192;2022-10-16T13:41:01;101488.66;;;15.91;65.97
74627;BME280;63132;52.268;5.192;2022-10-16T13:43:38;101495.72;;;16.43;62.92
74627;BME280;63132;52.268;5.192;2022-10-16T13:46:07;101492.88;;;16.46;64.02
74627;BME280;63132;52.268;5.192;2022-10-16T13:48:36;101502.38;;;16.29;65.48
74627;BME280;63132;52.268;5.192;2022-10-16T13:51:06;101501.47;;;16.55;64.42
74627;BME280;63132;52.268;5.192;2022-10-16T13:53:36;101499.09;;;16.77;64.52
74627;BME280;63132;52.268;5.192;2022-10-16T13:56:04;101496.28;;;16.77;63.83
74627;BME280;63132;52.268;5.192;2022-10-16T13:58:30;101496.66;;;16.99;63.00
74627;BME280;63132;52.268;5.192;2022-10-16T14:01:01;101500.56;;;17.02;63.95
74627;BME280;63132;52.268;5.192;2022-10-16T14:03:28;101503.03;;;17.00;65.90
74627;BME280;63132;52.268;5.192;2022-10-16T14:06:00;101499.41;;;17.19;63.95
74627;BME280;63132;52.268;5.192;2022-10-16T14:08:27;101503.19;;;17.29;63.07
74627;BME280;63132;52.268;5.192;2022-10-16T14:10:56;101498.91;;;17.04;64.59
74627;BME280;63132;52.268;5.192;2022-10-16T14:13:45;101506.31;;;17.14;63.69
74627;BME280;63132;52.268;5.192;2022-10-16T14:16:20;101497.13;;;16.94;64.12
74627;BME280;63132;52.268;5.192;2022-10-16T14:18:56;101500.44;;;16.89;64.12
74627;BME280;63132;52.268;5.192;2022-10-16T14:21:22;101507.47;;;16.97;62.57
74627;BME280;63132;52.268;5.192;2022-10-16T14:23:47;101499.03;;;17.17;63.17
74627;BME280;63132;52.268;5.192;2022-10-16T14:26:16;101494.34;;;16.74;65.42
74627;BME280;63132;52.268;5.192;2022-10-16T14:28:43;101503.03;;;16.80;65.21
74627;BME280;63132;52.268;5.192;2022-10-16T14:33:53;101504.19;;;16.59;65.51
74627;BME280;63132;52.268;5.192;2022-10-16T14:36:19;101503.59;;;16.91;63.99
74627;BME280;63132;52.268;5.192;2022-10-16T14:39:06;101506.50;;;16.64;67.31
74627;BME280;63132;52.268;5.192;2022-10-16T14:41:48;101497.94;;;16.95;64.26
74627;BME280;63132;52.268;5.192;2022-10-16T14:44:14;101506.16;;;16.82;64.89
74627;BME280;63132;52.268;5.192;2022-10-16T14:46:43;101508.91;;;16.42;66.46
74627;BME280;63132;52.268;5.192;2022-10-16T14:51:35;101516.78;;;16.27;67.33
74627;BME280;63132;52.268;5.192;2022-10-16T14:54:01;101518.78;;;16.27;67.43
74627;BME280;63132;52.268;5.192;2022-10-16T14:56:35;101516.44;;;16.45;65.94
74627;BME280;63132;52.268;5.192;2022-10-16T14:59:14;101514.03;;;16.00;67.90
74627;BME280;63132;52.268;5.192;2022-10-16T15:01:43;101503.59;;;16.28;67.72
74627;BME280;63132;52.268;5.192;2022-10-16T15:04:11;101515.88;;;16.11;67.79
74627;BME280;63132;52.268;5.192;2022-10-16T15:06:37;101518.69;;;16.30;67.62
74627;BME280;63132;52.268;5.192;2022-10-16T15:09:02;101515.22;;;16.03;68.57